LWSK

Skopje

Airport
ICAO code
LWSK
Summary
ICAO Region
EUR
ICAO Territory
Location

Skopje,

Coordinates
41° 57' 42" N , 21° 37' 20" E
KCC
Airport WX
Fog
Metar
Observation
LWSK 252030Z 09001KT CAVOK 13/10 Q1017 NOSIG
Station
Skopje-Petrovec
Date/Time
2022-09-25 20:30:00
Wind direction
90°
Wind speed
01 kts
Lowest cloud amount
clouds and visibility OK
Temperature
13°C
Dew point
10°C
Humidity
82%
QNH
1017 hPa
Weather condition
n/a

Description

Skopje Airport, or Skopje "Alexander the Great" Airport is the largest and busiest international airport in the Republic of Macedonia. Located 17 km southeast of the national capital, Skopje.

Climatology

Humid “subtropical” climate (Köppen climate classification Cfa) - characterized by hot, humid summers and cool winters. Significant amounts of precipitation occur in all seasons in most areas. Winter rainfall (and sometimes snowfall) is associated with large storms that the westerlies steer from west to east. Most summer rainfall occurs during thunderstorms.

Runways

Designator Length Width Surface Rops
16/34 2450 43 ASP Yes/Yes

Airport map

Aerial View

SKYbrary Partners:

Safety knowledge contributed by: